首页
METAR-TAF:

METAR-TAF

机场 :

帕果帕果, 美国本土外小岛屿

帕果帕果國際機場

纬度: 14-20S, 经度: 170-43W, 海拔: 3米

当前天气观测

该预报发布于27分钟前的12:50 UTC
风速13节,风向东南
温度 28°C
湿度 79%
气压 1011 hPa
能見度: 12.9公里
散云层高于1900英尺, 塔状积云.
多云层高于4000英尺
阴天层高于10000英尺
小阵雨

METAR: NSTU 171250Z 13013KT 8SM -SHRA SCT019TCU BKN040 OVC100 28/24 A2984 RMK SHRAB30 TCU W-N-NE SLP107 T02760243

时间: 02:17 (13:17 UTC)

预报

该预报发布于1小时和57分钟前的11:20 UTC
预报有效从17日的 12点(UTC)到 18日的 12点(UTC)
风速10节,风向东转东南
能見度: 10公里
散云层高于2100英尺
散云层高于4000英尺
多云层高于15000英尺
附近有阵雨

TAF: NSTU 171120Z 1712/1812 11010KT P6SM VCSH SCT021 SCT040 BKN150

超过4000个机场的气象观测和天气预报(METAR&TAF报告)。

可查询的气象台以黄色和红色小点在地图上表示。

将鼠标移到小点上方,可查看气象台名称。

然后点击查看天气观测和预报。

如需切换地图:点击带黑十字的绿色按钮放大地图;点击带横线的绿色按钮缩小地图;或者点击绿色箭头查看邻近地区的地图。


METAR-TAF: